Portada
METAR-TAF:

METAR-TAF

Aeroports :

Surat Thani, Tailàndia

latitud: 09-07N, longitud: 099-21E, altitud: 10 m

Observació

L'informe es va fer fa 40 minuts, a les 00:00 UTC
Vent 1 kt amb direcció variable
Temperatura 25°C
Humitat 89%
Pressió 1010 hPa
Visibilitat 10 km o més
Escasses núvols a una alçada de 2000 ft

METAR: VTSB 020000Z VRB01KT 9999 FEW020 25/23 Q1010

Hora: 07:40 (00:40 UTC)

Pronòstic

L'informe es va fer fa 1 hora i 40 minuts, a les 23:00 UTC
Pronòstic vàlid del 02 a les 00 UTC al 02 a les 24 UTC
Vent kt del Nord
Visibilitat 10 km o més
Escasses núvols a una alçada de 2000 ft
Evolucionant progressivament
l' 02 a les 04 UTC al 02 a les 06 UTC
Vent 13 kt del Nord-Est
Evolucionant progressivament
l' 02 a les 13 UTC al 02 a les 15 UTC
Vent 5 kt del Nord-Oest

TAF: VTSB 012300Z 0200/0224 00000KT 9999 FEW020 BECMG 0204/0206 05013KT BECMG 0213/0215 32005KT

Observacions i pronòstics meteorològics de més de 4000 aeroports (METAR i TAF).

Les estacions disponibles són els punts grocs i vermells al mapa.

Posi el ratolí al punt desitjat per veure el nom de l'estació.

Feu clic per veure les observacions i els pronòstics meteorològics.

Per canviar el mapa: feu clic els botons verds amb una creu de color negre per apropar; al botó verd amb un guió per allunyar la imatge; o en les fletxes verdes per a mapes adjacents.


METAR-TAF: